createdAt,value
2023-04-01T00:01:28.303Z,95790.88
2023-04-01T00:03:54.752Z,95781.66
2023-04-01T00:06:21.143Z,95792.28
2023-04-01T00:08:47.539Z,95793.25
2023-04-01T00:11:13.942Z,95799.75
2023-04-01T00:13:40.295Z,95790.56
2023-04-01T00:16:17.736Z,95782.94
2023-04-01T00:18:47.112Z,95782.94
2023-04-01T00:21:13.467Z,95786.34
2023-04-01T00:23:39.848Z,95781.09
2023-04-01T00:26:06.195Z,95788.81
2023-04-01T00:28:32.539Z,95794.44
2023-04-01T00:30:58.878Z,95815.59
2023-04-01T00:33:25.231Z,95825.28
2023-04-01T00:35:51.559Z,95817.03
2023-04-01T00:38:17.929Z,95800.72
2023-04-01T00:40:44.326Z,95793.56
2023-04-01T00:43:10.670Z,95781.84
2023-04-01T00:45:37.002Z,95788.66
2023-04-01T00:48:03.391Z,95794.38
2023-04-01T00:50:29.741Z,95797.53
2023-04-01T00:52:56.067Z,95803.56
2023-04-01T00:55:22.540Z,95807.69
2023-04-01T00:57:48.876Z,95813.69
2023-04-01T01:00:15.210Z,95808.00
2023-04-01T01:02:41.690Z,95794.44
2023-04-01T01:05:08.176Z,95788.66
2023-04-01T01:07:34.956Z,95801.19
2023-04-01T01:10:01.290Z,95793.91
2023-04-01T01:12:27.628Z,95788.66
2023-04-01T01:14:53.977Z,95791.75
2023-04-01T01:17:20.404Z,95798.66
2023-04-01T01:19:46.762Z,95801.81
2023-04-01T01:22:13.118Z,95809.34
2023-04-01T01:24:39.467Z,95823.38
2023-04-01T01:27:05.844Z,95824.16
2023-04-01T01:29:32.208Z,95821.47
2023-04-01T01:31:58.551Z,95816.72
2023-04-01T01:34:24.922Z,95808.31
2023-04-01T01:36:51.317Z,95808.41
2023-04-01T01:39:17.714Z,95814.66
2023-04-01T01:41:44.076Z,95817.19
2023-04-01T01:44:10.417Z,95810.47
2023-04-01T01:46:36.801Z,95801.50
2023-04-01T01:49:03.175Z,95800.25
2023-04-01T01:51:29.549Z,95802.13
2023-04-01T01:53:55.938Z,95791.34
2023-04-01T01:56:22.284Z,95780.59
2023-04-01T01:58:48.674Z,95777.75
2023-04-01T02:01:15.045Z,95771.13
2023-04-01T02:03:41.494Z,95772.19
2023-04-01T02:06:07.873Z,95767.56
2023-04-01T02:08:34.218Z,95767.91
2023-04-01T02:11:00.607Z,95771.06
2023-04-01T02:13:26.960Z,95765.28
2023-04-01T02:15:53.318Z,95763.63
2023-04-01T02:18:19.702Z,95763.63
2023-04-01T02:20:46.047Z,95773.75
2023-04-01T02:23:12.471Z,95771.56
2023-04-01T02:25:38.856Z,95753.88
2023-04-01T02:28:05.326Z,95741.91
2023-04-01T02:30:31.666Z,95746.50
2023-04-01T02:32:58.084Z,95734.94
2023-04-01T02:35:24.487Z,95742.22
2023-04-01T02:37:50.837Z,95745.41
2023-04-01T02:40:17.224Z,95744.94
2023-04-01T02:42:43.586Z,95739.22
2023-04-01T02:50:37.529Z,95719.88
2023-04-01T02:53:03.921Z,95732.63
2023-04-01T02:55:30.638Z,95747.47
2023-04-01T02:57:57.182Z,95750.63
2023-04-01T03:00:23.522Z,95740.00
2023-04-01T03:02:49.933Z,95738.09
2023-04-01T03:05:16.334Z,95748.09
2023-04-01T03:07:42.673Z,95739.28
2023-04-01T03:10:09.046Z,95736.34
2023-04-01T03:12:35.430Z,95734.63
2023-04-01T03:15:11.336Z,95743.81
2023-04-01T03:17:37.991Z,95746.66
2023-04-01T03:20:04.358Z,95750.78
2023-04-01T03:22:30.696Z,95752.59
2023-04-01T03:24:57.078Z,95750.78
2023-04-01T03:27:23.529Z,95763.75
2023-04-01T03:29:49.932Z,95757.25
2023-04-01T03:32:16.315Z,95751.56
2023-04-01T03:34:42.653Z,95761.22
2023-04-01T03:37:08.990Z,95769.44
2023-04-01T03:39:35.326Z,95777.38
2023-04-01T03:42:01.734Z,95774.22
2023-04-01T03:44:28.111Z,95763.59
2023-04-01T03:46:54.501Z,95774.75
2023-04-01T03:49:21.038Z,95762.38
2023-04-01T03:51:47.420Z,95759.22
2023-04-01T03:54:13.759Z,95750.25
2023-04-01T03:56:40.132Z,95749.13
2023-04-01T03:59:06.723Z,95747.56
2023-04-01T04:01:33.382Z,95741.75
2023-04-01T04:03:59.810Z,95731.88
2023-04-01T04:06:26.233Z,95726.66
2023-04-01T04:08:52.579Z,95723.81
2023-04-01T04:11:18.978Z,95723.00
2023-04-01T04:13:45.368Z,95730.38
2023-04-01T04:16:11.749Z,95728.22
2023-04-01T04:18:38.137Z,95736.16
2023-04-01T04:21:04.482Z,95736.16
2023-04-01T04:23:30.857Z,95724.91
2023-04-01T04:25:57.233Z,95736.72
2023-04-01T04:28:23.594Z,95735.94
2023-04-01T04:30:49.931Z,95745.81
2023-04-01T04:33:16.313Z,95751.63
2023-04-01T04:35:42.734Z,95747.34
2023-04-01T04:38:09.072Z,95735.78
2023-04-01T04:40:35.408Z,95729.91
2023-04-01T04:43:01.790Z,95740.13
2023-04-01T04:45:28.166Z,95739.38
2023-04-01T04:47:54.695Z,95730.69
2023-04-01T04:50:21.130Z,95733.66
2023-04-01T04:52:47.516Z,95745.56
2023-04-01T04:55:13.911Z,95733.66
2023-04-01T04:57:40.298Z,95740.22
2023-04-01T05:00:06.689Z,95738.88
2023-04-01T05:02:33.141Z,95741.59
2023-04-01T05:04:59.526Z,95748.41
2023-04-01T05:07:25.872Z,95756.00
2023-04-01T05:09:52.201Z,95748.72
2023-04-01T05:12:18.581Z,95739.44
2023-04-01T05:14:44.960Z,95747.50
2023-04-01T05:17:11.530Z,95750.56
2023-04-01T05:19:38.036Z,95751.78
2023-04-01T05:22:04.432Z,95756.56
2023-04-01T05:24:30.776Z,95763.94
2023-04-01T05:26:57.147Z,95767.59
2023-04-01T05:29:23.505Z,95774.28
2023-04-01T05:31:49.881Z,95763.84
2023-04-01T05:34:16.275Z,95742.59
2023-04-01T05:36:42.645Z,95747.34
2023-04-01T05:39:09.047Z,95745.78
2023-04-01T05:41:35.437Z,95747.75
2023-04-01T05:44:02.102Z,95749.75
2023-04-01T05:46:29.604Z,95744.66
2023-04-01T05:48:56.040Z,95742.97
2023-04-01T05:51:22.423Z,95750.34
2023-04-01T05:53:48.900Z,95740.69
2023-04-01T05:56:15.270Z,95745.78
2023-04-01T05:58:41.646Z,95747.13
2023-04-01T06:01:11.495Z,95751.47
2023-04-01T06:03:40.489Z,95758.06
2023-04-01T06:06:06.976Z,95758.34
2023-04-01T06:08:33.320Z,95751.97
2023-04-01T06:10:59.669Z,95755.25
2023-04-01T06:13:26.003Z,95747.97
2023-04-01T06:15:52.418Z,95738.22
2023-04-01T06:18:18.822Z,95753.56
2023-04-01T06:20:45.161Z,95741.06
2023-04-01T06:23:11.560Z,95752.53
2023-04-01T06:25:37.954Z,95759.03
2023-04-01T06:28:04.344Z,95764.84
2023-04-01T06:30:30.706Z,95761.41
2023-04-01T06:32:57.158Z,95762.69
2023-04-01T06:35:23.582Z,95772.91
2023-04-01T06:37:49.989Z,95777.88
2023-04-01T06:40:16.377Z,95779.28
2023-04-01T06:42:42.735Z,95790.16
2023-04-01T06:45:09.093Z,95787.63
2023-04-01T06:47:35.504Z,95779.34
2023-04-01T06:50:01.922Z,95783.63
2023-04-01T06:52:28.285Z,95789.84
2023-04-01T06:54:54.665Z,95798.94
2023-04-01T06:57:21.099Z,95800.25
2023-04-01T06:59:47.487Z,95801.09
2023-04-01T07:02:13.875Z,95792.78
2023-04-01T07:04:40.255Z,95790.28
2023-04-01T07:07:06.694Z,95785.34
2023-04-01T07:09:33.066Z,95790.97
2023-04-01T07:11:59.410Z,95784.06
2023-04-01T07:14:25.757Z,95803.13
2023-04-01T07:16:52.183Z,95800.75
2023-04-01T07:19:18.576Z,95809.97
2023-04-01T07:21:44.927Z,95815.63
2023-04-01T07:24:11.302Z,95808.69
2023-04-01T07:26:37.693Z,95805.63
2023-04-01T07:29:04.075Z,95820.25
2023-04-01T07:31:30.591Z,95818.91
2023-04-01T07:33:57.053Z,95814.09
2023-04-01T07:36:23.448Z,95816.63
2023-04-01T07:38:49.836Z,95820.16
2023-04-01T07:41:16.797Z,95826.84
2023-04-01T07:43:43.187Z,95820.72
2023-04-01T07:46:09.588Z,95826.25
2023-04-01T07:48:36.008Z,95815.00
2023-04-01T07:51:02.402Z,95825.88
2023-04-01T07:53:28.791Z,95820.09
2023-04-01T07:55:55.178Z,95815.81
2023-04-01T07:58:21.533Z,95824.06
2023-04-01T08:00:47.888Z,95817.72
2023-04-01T08:03:14.377Z,95817.31
2023-04-01T08:05:40.873Z,95830.34
2023-04-01T08:08:07.226Z,95827.31
2023-04-01T08:10:33.636Z,95832.31
2023-04-01T08:13:00.024Z,95832.53
2023-04-01T08:15:26.371Z,95831.13
2023-04-01T08:17:52.735Z,95825.00
2023-04-01T08:20:19.159Z,95832.94
2023-04-01T08:22:45.541Z,95841.81
2023-04-01T08:25:11.887Z,95845.47
2023-04-01T08:27:38.268Z,95835.34
2023-04-01T08:30:04.668Z,95840.84
2023-04-01T08:32:31.054Z,95844.63
2023-04-01T08:34:57.420Z,95837.41
2023-04-01T08:37:23.790Z,95831.69
2023-04-01T08:39:50.174Z,95823.28
2023-04-01T08:42:16.564Z,95826.47
2023-04-01T08:44:42.927Z,95826.66
2023-04-01T08:47:09.271Z,95823.50
2023-04-01T08:49:35.624Z,95815.34
2023-04-01T08:52:01.986Z,95824.47
2023-04-01T08:54:28.377Z,95820.06
2023-04-01T08:56:54.807Z,95817.50
2023-04-01T08:59:21.168Z,95828.91
2023-04-01T09:01:47.528Z,95830.06
2023-04-01T09:04:13.942Z,95829.41
2023-04-01T09:06:40.320Z,95838.91
2023-04-01T09:09:06.695Z,95832.91
2023-04-01T09:11:33.079Z,95834.47
2023-04-01T09:13:59.475Z,95837.66
2023-04-01T09:16:25.930Z,95846.06
2023-04-01T09:18:52.307Z,95836.22
2023-04-01T09:21:18.686Z,95829.69
2023-04-01T09:23:45.070Z,95830.81
2023-04-01T09:26:11.448Z,95838.75
2023-04-01T09:28:37.836Z,95833.97
2023-04-01T09:31:04.222Z,95834.09
2023-04-01T09:33:30.624Z,95830.16
2023-04-01T09:35:57.094Z,95832.16
2023-04-01T09:38:23.485Z,95838.59
2023-04-01T09:40:49.864Z,95840.16
2023-04-01T09:43:16.209Z,95841.44
2023-04-01T09:45:42.599Z,95836.06
2023-04-01T09:48:09.055Z,95846.06
2023-04-01T09:50:35.455Z,95837.78
2023-04-01T09:53:01.840Z,95831.09
2023-04-01T09:55:28.421Z,95840.31
2023-04-01T09:57:54.758Z,95843.66
2023-04-01T10:00:21.130Z,95840.47
2023-04-01T10:02:47.530Z,95843.09
2023-04-01T10:05:14.005Z,95842.22
2023-04-01T10:07:41.533Z,95829.31
2023-04-01T10:10:07.922Z,95828.25
2023-04-01T10:12:34.316Z,95820.41
2023-04-01T10:15:00.712Z,95815.16
2023-04-01T10:17:27.133Z,95812.94
2023-04-01T10:19:53.506Z,95816.00
2023-04-01T10:22:19.851Z,95821.31
2023-04-01T10:24:46.193Z,95821.13
2023-04-01T10:27:12.594Z,95806.28
2023-04-01T10:29:38.989Z,95801.69
2023-04-01T10:32:05.422Z,95799.13
2023-04-01T10:34:31.830Z,95802.38
2023-04-01T10:36:58.181Z,95802.50
2023-04-01T10:39:24.570Z,95797.72
2023-04-01T10:41:50.970Z,95798.41
2023-04-01T10:44:17.339Z,95804.00
2023-04-01T10:46:43.699Z,95803.97
2023-04-01T10:49:10.088Z,95802.19
2023-04-01T10:51:36.466Z,95800.25
2023-04-01T10:54:02.810Z,95798.59
2023-04-01T10:56:29.163Z,95806.13
2023-04-01T10:58:55.577Z,95805.13
2023-04-01T11:01:21.983Z,95811.59
2023-04-01T11:03:48.550Z,95819.97
2023-04-01T11:06:15.019Z,95815.28
2023-04-01T11:08:41.402Z,95816.06
2023-04-01T11:11:07.756Z,95809.72
2023-04-01T11:13:34.139Z,95808.00
2023-04-01T11:16:00.568Z,95811.50
2023-04-01T11:18:27.085Z,95797.28
2023-04-01T11:20:53.478Z,95797.38
2023-04-01T11:23:19.828Z,95789.03
2023-04-01T11:25:46.162Z,95783.25
2023-04-01T11:28:12.544Z,95789.56
2023-04-01T11:30:38.900Z,95773.22
2023-04-01T11:33:05.311Z,95783.84
2023-04-01T11:35:32.006Z,95772.41
2023-04-01T11:37:58.588Z,95766.25
2023-04-01T11:40:24.964Z,95770.13
2023-04-01T11:42:51.320Z,95761.31
2023-04-01T11:45:17.673Z,95761.69
2023-04-01T11:47:44.065Z,95750.88
2023-04-01T11:50:10.438Z,95758.06
2023-04-01T11:52:36.793Z,95759.78
2023-04-01T11:55:03.147Z,95756.16
2023-04-01T11:57:29.522Z,95754.56
2023-04-01T11:59:56.010Z,95753.31
2023-04-01T12:02:22.404Z,95742.16
2023-04-01T12:04:48.890Z,95738.38
2023-04-01T12:07:15.337Z,95740.06
2023-04-01T12:09:41.734Z,95747.06
2023-04-01T12:12:08.078Z,95743.50
2023-04-01T12:14:34.445Z,95741.59
2023-04-01T12:17:01.117Z,95721.69
2023-04-01T12:19:27.531Z,95721.88
2023-04-01T12:21:53.934Z,95721.38
2023-04-01T12:24:20.282Z,95723.75
2023-04-01T12:26:46.624Z,95729.00
2023-04-01T12:29:13.002Z,95713.50
2023-04-01T12:31:39.397Z,95730.41
2023-04-01T12:34:05.786Z,95714.19
2023-04-01T12:36:32.126Z,95702.66
2023-04-01T12:38:58.510Z,95701.56
2023-04-01T12:41:24.862Z,95701.63
2023-04-01T12:43:51.274Z,95701.13
2023-04-01T12:46:17.734Z,95693.53
2023-04-01T12:48:44.108Z,95696.41
2023-04-01T12:51:10.449Z,95693.22
2023-04-01T12:53:36.820Z,95686.31
2023-04-01T12:56:03.209Z,95682.19
2023-04-01T12:58:29.768Z,95681.00
2023-04-01T13:00:56.182Z,95679.69
2023-04-01T13:03:22.611Z,95680.72
2023-04-01T13:05:48.963Z,95686.44
2023-04-01T13:08:15.294Z,95689.63
2023-04-01T13:10:41.712Z,95681.75
2023-04-01T13:13:08.117Z,95672.34
2023-04-01T13:15:34.504Z,95681.03
2023-04-01T13:18:00.951Z,95676.38
2023-04-01T13:20:27.377Z,95682.44
2023-04-01T13:22:53.743Z,95676.63
2023-04-01T13:25:20.136Z,95679.78
2023-04-01T13:27:46.488Z,95668.97
2023-04-01T13:30:12.834Z,95659.75
2023-04-01T13:35:08.466Z,95658.72
2023-04-01T13:37:36.209Z,95653.41
2023-04-01T13:40:02.780Z,95661.56
2023-04-01T13:42:29.128Z,95642.44
2023-04-01T13:44:55.509Z,95637.19
2023-04-01T13:47:22.034Z,95643.50
2023-04-01T13:49:48.438Z,95634.56
2023-04-01T13:52:14.828Z,95631.66
2023-04-01T13:54:41.175Z,95631.66
2023-04-01T13:57:07.638Z,95626.16
2023-04-01T13:59:34.080Z,95633.53
2023-04-01T14:02:00.429Z,95630.88
2023-04-01T14:04:26.798Z,95631.09
2023-04-01T14:06:53.179Z,95637.13
2023-04-01T14:09:19.532Z,95628.91
2023-04-01T14:11:45.889Z,95632.78
2023-04-01T14:14:12.290Z,95649.56
2023-04-01T14:16:38.755Z,95647.09
2023-04-01T14:19:05.123Z,95652.09
2023-04-01T14:21:31.512Z,95652.13
2023-04-01T14:23:57.902Z,95647.38
2023-04-01T14:26:24.288Z,95638.75
2023-04-01T14:28:50.635Z,95644.38
2023-04-01T14:31:17.026Z,95644.94
2023-04-01T14:33:43.415Z,95640.78
2023-04-01T14:36:09.845Z,95643.94
2023-04-01T14:38:36.250Z,95647.66
2023-04-01T14:41:02.659Z,95647.13
2023-04-01T14:43:29.053Z,95641.34
2023-04-01T14:45:55.476Z,95639.72
2023-04-01T14:48:21.854Z,95635.50
2023-04-01T14:50:48.193Z,95641.84
2023-04-01T14:53:14.605Z,95639.72
2023-04-01T14:55:40.989Z,95627.66
2023-04-01T14:58:07.399Z,95632.94
2023-04-01T15:00:33.795Z,95626.88
2023-04-01T15:03:00.261Z,95620.38
2023-04-01T15:05:26.729Z,95626.41
2023-04-01T15:07:53.074Z,95627.72
2023-04-01T15:10:19.451Z,95618.25
2023-04-01T15:12:45.843Z,95622.44
2023-04-01T15:15:12.256Z,95624.53
2023-04-01T15:17:38.620Z,95614.81
2023-04-01T15:20:05.006Z,95621.66
2023-04-01T15:22:31.398Z,95614.53
2023-04-01T15:24:57.784Z,95623.75
2023-04-01T15:27:24.106Z,95616.63
2023-04-01T15:29:50.438Z,95619.78
2023-04-01T15:32:16.776Z,95620.84
2023-04-01T15:34:43.142Z,95625.53
2023-04-01T15:37:09.528Z,95623.41
2023-04-01T15:39:35.898Z,95628.91
2023-04-01T15:42:02.291Z,95633.06
2023-04-01T15:44:28.694Z,95625.47
2023-04-01T15:46:55.098Z,95628.88
2023-04-01T15:49:21.429Z,95630.00
2023-04-01T15:51:47.817Z,95622.63
2023-04-01T15:54:14.156Z,95617.63
2023-04-01T15:56:40.547Z,95608.44
2023-04-01T15:59:06.951Z,95613.41
2023-04-01T16:01:33.301Z,95606.56
2023-04-01T16:03:59.767Z,95604.97
2023-04-01T16:06:26.231Z,95616.00
2023-04-01T16:08:52.606Z,95613.38
2023-04-01T16:11:18.995Z,95610.50
2023-04-01T16:13:45.353Z,95617.31
2023-04-01T16:16:11.746Z,95623.88
2023-04-01T16:18:38.109Z,95629.13
2023-04-01T16:21:04.483Z,95621.25
2023-04-01T16:23:30.818Z,95628.09
2023-04-01T16:25:57.151Z,95625.44
2023-04-01T16:28:23.559Z,95625.44
2023-04-01T16:30:49.987Z,95618.09
2023-04-01T16:33:16.399Z,95625.41
2023-04-01T16:35:42.831Z,95633.78
2023-04-01T16:38:09.218Z,95634.19
2023-04-01T16:40:35.657Z,95628.16
2023-04-01T16:43:02.019Z,95633.53
2023-04-01T16:45:28.402Z,95641.41
2023-04-01T16:47:54.810Z,95632.44
2023-04-01T16:50:21.366Z,95626.59
2023-04-01T16:52:47.724Z,95623.72
2023-04-01T16:55:14.093Z,95639.09
2023-04-01T16:57:40.426Z,95631.69
2023-04-01T17:00:06.816Z,95639.31
2023-04-01T17:02:33.242Z,95643.28
2023-04-01T17:04:59.597Z,95638.53
2023-04-01T17:07:25.928Z,95639.03
2023-04-01T17:09:52.256Z,95650.53
2023-04-01T17:12:18.644Z,95652.91
2023-04-01T17:14:44.991Z,95652.31
2023-04-01T17:17:11.396Z,95651.63
2023-04-01T17:19:37.782Z,95655.47
2023-04-01T17:22:04.135Z,95657.53
2023-04-01T17:24:30.522Z,95666.44
2023-04-01T17:26:56.873Z,95663.47
2023-04-01T17:29:23.247Z,95667.88
2023-04-01T17:31:49.611Z,95673.16
2023-04-01T17:34:15.981Z,95675.25
2023-04-01T17:36:42.372Z,95666.78
2023-04-01T17:39:08.759Z,95679.81
2023-04-01T17:41:35.129Z,95677.22
2023-04-01T17:44:01.458Z,95675.19
2023-04-01T17:46:27.807Z,95685.63
2023-04-01T17:48:54.198Z,95677.69
2023-04-01T17:51:20.555Z,95686.63
2023-04-01T17:53:46.925Z,95689.81
2023-04-01T17:56:13.312Z,95691.38
2023-04-01T17:58:39.689Z,95701.28
2023-04-01T18:01:06.077Z,95704.31
2023-04-01T18:03:32.541Z,95706.38
2023-04-01T18:05:58.965Z,95711.13
2023-04-01T18:08:25.318Z,95708.97
2023-04-01T18:10:51.690Z,95708.63
2023-04-01T18:13:18.022Z,95706.91
2023-04-01T18:15:44.376Z,95711.84
2023-04-01T18:18:10.715Z,95713.47
2023-04-01T18:20:37.301Z,95717.28
2023-04-01T18:23:03.769Z,95716.38
2023-04-01T18:25:30.174Z,95715.44
2023-04-01T18:27:56.575Z,95713.53
2023-04-01T18:30:22.967Z,95714.94
2023-04-01T18:32:49.318Z,95724.69
2023-04-01T18:35:15.768Z,95720.00
2023-04-01T18:37:42.119Z,95740.16
2023-04-01T18:40:08.501Z,95740.16
2023-04-01T18:42:34.868Z,95745.38
2023-04-01T18:45:01.267Z,95745.38
2023-04-01T18:47:27.710Z,95753.28
2023-04-01T18:49:54.102Z,95752.81
2023-04-01T18:52:20.446Z,95753.84
2023-04-01T18:54:46.827Z,95762.50
2023-04-01T18:57:13.204Z,95767.88
2023-04-01T18:59:39.545Z,95772.56
2023-04-01T19:02:05.924Z,95780.41
2023-04-01T19:04:32.272Z,95773.59
2023-04-01T19:06:58.611Z,95783.50
2023-04-01T19:09:25.059Z,95788.81
2023-04-01T19:11:51.486Z,95792.94
2023-04-01T19:14:17.868Z,95789.16
2023-04-01T19:16:44.264Z,95788.50
2023-04-01T19:19:10.725Z,95803.09
2023-04-01T19:21:37.067Z,95799.91
2023-04-01T19:24:03.407Z,95800.63
2023-04-01T19:26:29.784Z,95802.00
2023-04-01T19:28:56.173Z,95808.69
2023-04-01T19:31:22.594Z,95803.00
2023-04-01T19:33:48.966Z,95798.00
2023-04-01T19:36:15.370Z,95803.47
2023-04-01T19:38:41.758Z,95798.78
2023-04-01T19:41:08.128Z,95793.13
2023-04-01T19:43:34.482Z,95798.59
2023-04-01T19:46:00.834Z,95789.50
2023-04-01T19:48:27.287Z,95791.09
2023-04-01T19:50:53.700Z,95804.63
2023-04-01T19:53:20.098Z,95806.59
2023-04-01T19:55:46.454Z,95807.63
2023-04-01T19:58:12.805Z,95806.03
2023-04-01T20:00:39.187Z,95809.69
2023-04-01T20:03:05.589Z,95807.63
2023-04-01T20:05:32.298Z,95809.69
2023-04-01T20:07:58.814Z,95812.78
2023-04-01T20:10:25.193Z,95803.31
2023-04-01T20:12:51.596Z,95800.16
2023-04-01T20:15:17.999Z,95797.00
2023-04-01T20:17:44.413Z,95811.56
2023-04-01T20:20:10.790Z,95815.19
2023-04-01T20:22:37.168Z,95823.41
2023-04-01T20:25:03.578Z,95829.75
2023-04-01T20:27:29.921Z,95829.75
2023-04-01T20:29:56.294Z,95840.06
2023-04-01T20:32:22.636Z,95844.50
2023-04-01T20:34:48.969Z,95844.50
2023-04-01T20:37:15.446Z,95839.16
2023-04-01T20:39:41.881Z,95836.53
2023-04-01T20:42:08.220Z,95829.28
2023-04-01T20:44:34.559Z,95831.09
2023-04-01T20:47:00.898Z,95830.09
2023-04-01T20:49:27.240Z,95831.31
2023-04-01T20:51:53.583Z,95839.72
2023-04-01T20:54:19.954Z,95846.53
2023-04-01T20:56:46.327Z,95852.22
2023-04-01T20:59:12.692Z,95848.59
2023-04-01T21:01:39.064Z,95854.94
2023-04-01T21:04:05.438Z,95856.97
2023-04-01T21:06:31.831Z,95854.38
2023-04-01T21:08:58.213Z,95850.06
2023-04-01T21:11:24.558Z,95852.44
2023-04-01T21:13:50.920Z,95860.50
2023-04-01T21:16:17.339Z,95860.03
2023-04-01T21:18:43.777Z,95859.81
2023-04-01T21:21:10.168Z,95859.88
2023-04-01T21:23:36.569Z,95853.06
2023-04-01T21:26:02.929Z,95850.94
2023-04-01T21:28:29.301Z,95848.66
2023-04-01T21:30:55.747Z,95839.44
2023-04-01T21:33:22.141Z,95833.09
2023-04-01T21:35:48.483Z,95827.53
2023-04-01T21:38:14.848Z,95832.34
2023-04-01T21:40:41.230Z,95836.94
2023-04-01T21:43:07.580Z,95842.06
2023-04-01T21:45:34.184Z,95842.06
2023-04-01T21:48:00.770Z,95830.94
2023-04-01T21:50:27.205Z,95830.38
2023-04-01T21:52:53.587Z,95830.63
2023-04-01T21:55:19.940Z,95843.44
2023-04-01T21:57:46.318Z,95847.53
2023-04-01T22:00:12.698Z,95834.81
2023-04-01T22:02:39.095Z,95845.25
2023-04-01T22:05:05.492Z,95848.34
2023-04-01T22:07:31.837Z,95844.13
2023-04-01T22:09:58.165Z,95852.97
2023-04-01T22:12:25.356Z,95847.28
2023-04-01T22:14:51.860Z,95855.25
2023-04-01T22:17:18.228Z,95853.16
2023-04-01T22:19:44.596Z,95854.81
2023-04-01T22:22:10.992Z,95845.34
2023-04-01T22:24:37.387Z,95848.41
2023-04-01T22:27:03.783Z,95854.91
2023-04-01T22:29:30.180Z,95856.00
2023-04-01T22:31:56.589Z,95850.47
2023-04-01T22:34:22.993Z,95853.31
2023-04-01T22:36:49.370Z,95864.06
2023-04-01T22:39:15.819Z,95862.50
2023-04-01T22:41:42.219Z,95860.47
2023-04-01T22:44:08.571Z,95864.66
2023-04-01T22:46:35.218Z,95862.03
2023-04-01T22:49:01.606Z,95853.16
2023-04-01T22:51:27.996Z,95858.09
2023-04-01T22:53:54.381Z,95850.03
2023-04-01T22:56:20.741Z,95865.56
2023-04-01T22:58:47.078Z,95872.28
2023-04-01T23:01:13.545Z,95864.34
2023-04-01T23:03:39.922Z,95871.13
2023-04-01T23:06:06.269Z,95864.34
2023-04-01T23:08:32.646Z,95861.84
2023-04-01T23:10:58.991Z,95864.69
2023-04-01T23:13:25.344Z,95863.88
2023-04-01T23:15:51.697Z,95865.47
2023-04-01T23:18:18.049Z,95865.47
2023-04-01T23:20:44.421Z,95870.03
2023-04-01T23:23:10.808Z,95877.06
2023-04-01T23:25:37.352Z,95868.00
2023-04-01T23:28:03.783Z,95871.16
2023-04-01T23:30:30.165Z,95872.31
2023-04-01T23:32:56.630Z,95878.06
2023-04-01T23:35:23.071Z,95867.09
2023-04-01T23:37:49.419Z,95877.97
2023-04-01T23:40:15.785Z,95885.22
2023-04-01T23:42:42.173Z,95881.81
2023-04-01T23:45:08.572Z,95889.44
2023-04-01T23:47:34.981Z,95890.69
2023-04-01T23:50:03.142Z,95887.94
2023-04-01T23:52:30.732Z,95893.63
2023-04-01T23:54:57.091Z,95887.50
2023-04-01T23:57:23.533Z,95898.16
2023-04-01T23:59:49.952Z,95896.25
